Chanthaburi, Thailand
Current Conditions -  °F | °C
As of 2:00 AM on Friday 31 Oct 2014 (Local Time) from VTBU Reporting Station
Haze Haze  
Wind Chill: 77°   Ceiling: 30000
Heat Index: 78°   Visibility: 2.5mi
Dew Point: 75°   Wind: 3mph
Humidity: 94%   Direction: 30°NNE
Pressure: 29.8"   Gusts: NA
Location:  12.61°N, 102.11°E
Report Text: VTBU 301900Z 03003KT 4000 BR FEW020 BKN300 25/24 Q1009 A2981
Loading
Personal Weather Stations






























Interactive Weather Map
Tropical Storm Tracking
New forecast layout! Learn more

10-Day Weather Forecast

Advertisements
Track Severe Weather on mobile